createdAt,value
2023-02-06T00:01:23.207Z,25.03
2023-02-06T00:03:50.373Z,25.13
2023-02-06T00:06:17.461Z,26.17
2023-02-06T00:08:44.566Z,26.80
2023-02-06T00:11:16.728Z,26.37
2023-02-06T00:13:45.665Z,26.40
2023-02-06T00:16:26.020Z,22.87
2023-02-06T00:18:54.505Z,25.40
2023-02-06T00:21:24.623Z,25.17
2023-02-06T00:23:54.464Z,25.77
2023-02-06T00:26:22.526Z,23.30
2023-02-06T00:28:49.618Z,25.93
2023-02-06T00:31:16.906Z,24.77
2023-02-06T00:33:44.226Z,25.10
2023-02-06T00:36:12.020Z,25.50
2023-02-06T00:38:39.146Z,25.70
2023-02-06T00:41:06.452Z,27.67
2023-02-06T00:43:33.670Z,28.30
2023-02-06T00:46:00.652Z,28.47
2023-02-06T00:48:27.753Z,27.23
2023-02-06T00:50:55.173Z,28.57
2023-02-06T00:53:23.034Z,28.17
2023-02-06T00:55:50.064Z,29.10
2023-02-06T00:58:17.175Z,29.13
2023-02-06T01:00:45.004Z,29.97
2023-02-06T01:03:12.528Z,29.40
2023-02-06T01:05:39.558Z,28.47
2023-02-06T01:08:06.813Z,27.93
2023-02-06T01:10:34.214Z,26.50
2023-02-06T01:13:01.416Z,30.00
2023-02-06T01:15:28.541Z,29.70
2023-02-06T01:17:55.596Z,27.50
2023-02-06T01:20:23.942Z,28.57
2023-02-06T01:44:52.901Z,27.27
2023-02-06T01:47:20.035Z,28.90
2023-02-06T01:49:50.236Z,29.07
2023-02-06T01:52:30.372Z,28.53
2023-02-06T01:55:03.031Z,29.37
2023-02-06T01:57:31.499Z,27.97
2023-02-06T02:00:04.178Z,28.50
2023-02-06T02:02:32.587Z,29.90
2023-02-06T02:05:01.701Z,27.70
2023-02-06T02:07:46.080Z,30.33
2023-02-06T02:10:13.139Z,29.13
2023-02-06T02:12:40.279Z,29.07
2023-02-06T02:15:07.935Z,32.07
2023-02-06T02:18:03.154Z,30.00
2023-02-06T02:21:35.279Z,30.30
2023-02-06T02:24:58.835Z,32.67
2023-02-06T02:27:59.170Z,32.70
2023-02-06T02:34:02.096Z,34.30
2023-02-06T02:36:52.526Z,33.97
2023-02-06T02:39:34.877Z,33.17
2023-02-06T02:42:55.497Z,35.57
2023-02-06T02:45:51.781Z,34.97
2023-02-06T02:48:26.605Z,34.30
2023-02-06T02:50:56.336Z,33.47
2023-02-06T02:53:23.407Z,35.40
2023-02-06T02:55:50.394Z,33.87
2023-02-06T02:58:26.154Z,33.53
2023-02-06T03:01:04.230Z,35.80
2023-02-06T03:03:34.295Z,34.07
2023-02-06T03:06:22.124Z,31.67
2023-02-06T03:09:23.040Z,35.17
2023-02-06T03:12:02.753Z,34.80
2023-02-06T03:14:41.448Z,33.63
2023-02-06T03:17:15.160Z,34.10
2023-02-06T03:19:53.440Z,33.13
2023-02-06T03:22:21.418Z,33.23
2023-02-06T03:24:50.611Z,32.47
2023-02-06T03:27:19.702Z,32.33
2023-02-06T03:29:51.387Z,31.97
2023-02-06T03:32:31.317Z,32.00
2023-02-06T03:35:31.755Z,30.73
2023-02-06T03:37:59.007Z,33.10
2023-02-06T03:40:28.507Z,31.53
2023-02-06T03:43:00.667Z,30.07
2023-02-06T03:45:38.841Z,32.23
2023-02-06T03:48:18.906Z,33.87
2023-02-06T03:50:50.319Z,32.27
2023-02-06T03:53:19.670Z,31.13
2023-02-06T03:55:47.853Z,31.53
2023-02-06T03:58:15.441Z,33.37
2023-02-06T04:00:44.576Z,31.57
2023-02-06T04:03:13.424Z,34.83
2023-02-06T04:05:40.745Z,32.47
2023-02-06T04:08:07.885Z,31.67
2023-02-06T04:10:34.949Z,32.03
2023-02-06T04:13:01.994Z,33.37
2023-02-06T04:15:29.036Z,32.40
2023-02-06T04:18:01.317Z,32.10
2023-02-06T04:20:29.861Z,32.03
2023-02-06T04:22:58.741Z,32.70
2023-02-06T04:25:26.291Z,33.53
2023-02-06T04:27:53.457Z,34.20
2023-02-06T04:30:20.604Z,33.10
2023-02-06T04:32:47.645Z,33.53
2023-02-06T04:35:14.709Z,34.43
2023-02-06T04:37:41.816Z,33.23
2023-02-06T04:40:09.842Z,33.83
2023-02-06T04:42:37.004Z,33.60
2023-02-06T04:45:04.509Z,33.37
2023-02-06T04:47:31.510Z,33.77
2023-02-06T04:49:58.595Z,34.63
2023-02-06T04:52:25.598Z,34.63
2023-02-06T04:54:52.656Z,35.70
2023-02-06T04:57:19.850Z,35.30
2023-02-06T04:59:46.877Z,36.73
2023-02-06T05:02:13.861Z,34.83
2023-02-06T05:04:40.861Z,35.50
2023-02-06T05:07:09.152Z,35.17
2023-02-06T05:09:36.194Z,35.50
2023-02-06T05:12:03.241Z,34.40
2023-02-06T05:14:30.235Z,36.70
2023-02-06T05:16:57.306Z,33.63
2023-02-06T05:19:24.300Z,34.13
2023-02-06T05:21:51.415Z,36.77
2023-02-06T05:24:18.809Z,37.40
2023-02-06T05:26:46.608Z,34.90
2023-02-06T05:29:13.689Z,36.57
2023-02-06T05:31:40.775Z,37.13
2023-02-06T05:34:09.437Z,36.90
2023-02-06T05:36:36.741Z,35.17
2023-02-06T05:39:04.788Z,34.10
2023-02-06T05:41:31.969Z,36.43
2023-02-06T05:43:59.061Z,34.83
2023-02-06T05:46:26.218Z,36.83
2023-02-06T05:48:53.323Z,35.93
2023-02-06T05:51:20.423Z,35.40
2023-02-06T05:53:47.424Z,35.17
2023-02-06T05:56:14.430Z,34.83
2023-02-06T05:58:41.444Z,34.63
2023-02-06T06:01:10.096Z,36.57
2023-02-06T06:03:38.583Z,34.20
2023-02-06T06:06:06.732Z,34.27
2023-02-06T06:08:33.878Z,35.50
2023-02-06T06:11:02.739Z,36.80
2023-02-06T06:13:29.900Z,31.23
2023-02-06T06:15:56.950Z,31.07
2023-02-06T06:18:24.088Z,32.90
2023-02-06T06:20:51.351Z,31.63
2023-02-06T06:23:18.421Z,32.07
2023-02-06T06:25:47.675Z,30.83
2023-02-06T06:28:15.191Z,31.60
2023-02-06T06:30:42.799Z,31.73
2023-02-06T06:33:09.931Z,29.23
2023-02-06T06:35:37.765Z,30.93
2023-02-06T06:38:04.893Z,29.50
2023-02-06T06:40:31.915Z,29.20
2023-02-06T06:42:58.929Z,29.43
2023-02-06T06:45:25.956Z,29.23
2023-02-06T06:47:53.037Z,28.80
2023-02-06T06:50:20.104Z,27.27
2023-02-06T06:52:47.101Z,29.00
2023-02-06T06:55:14.115Z,26.63
2023-02-06T06:57:41.106Z,27.90
2023-02-06T07:00:09.364Z,27.03
2023-02-06T07:02:36.389Z,28.93
2023-02-06T07:05:04.536Z,28.90
2023-02-06T07:07:32.211Z,29.43
2023-02-06T07:10:00.101Z,28.57
2023-02-06T07:12:28.112Z,28.93
2023-02-06T07:14:55.207Z,29.60
2023-02-06T07:17:22.305Z,27.40
2023-02-06T07:19:51.583Z,30.10
2023-02-06T07:22:20.166Z,27.73
2023-02-06T07:24:47.648Z,29.53
2023-02-06T07:27:14.993Z,29.73
2023-02-06T07:29:41.984Z,29.93
2023-02-06T07:32:09.209Z,27.87
2023-02-06T07:34:36.664Z,28.50
2023-02-06T07:37:04.798Z,25.87
2023-02-06T07:39:32.144Z,26.10
2023-02-06T07:41:59.205Z,26.93
2023-02-06T07:44:26.211Z,26.73
2023-02-06T07:46:53.192Z,26.73
2023-02-06T07:49:20.275Z,29.00
2023-02-06T07:51:47.280Z,28.40
2023-02-06T07:54:14.486Z,26.53
2023-02-06T07:56:42.127Z,26.37
2023-02-06T07:59:09.544Z,29.33
2023-02-06T08:01:36.961Z,27.10
2023-02-06T08:04:04.281Z,27.53
2023-02-06T08:06:31.693Z,27.43
2023-02-06T08:08:58.880Z,27.47
2023-02-06T08:11:27.796Z,27.80
2023-02-06T08:13:54.818Z,28.07
2023-02-06T08:16:23.627Z,27.80
2023-02-06T08:18:51.301Z,27.93
2023-02-06T08:21:22.107Z,27.47
2023-02-06T08:23:58.840Z,28.10
2023-02-06T08:26:28.958Z,28.23
2023-02-06T08:28:57.780Z,27.73
2023-02-06T08:31:31.939Z,27.43
2023-02-06T08:33:59.177Z,27.10
2023-02-06T08:36:27.521Z,27.20
2023-02-06T08:38:54.549Z,26.33
2023-02-06T08:41:26.635Z,28.27
2023-02-06T08:43:57.566Z,27.67
2023-02-06T08:46:28.392Z,27.13
2023-02-06T08:49:08.028Z,29.13
2023-02-06T08:51:36.841Z,27.97
2023-02-06T08:54:07.154Z,29.23
2023-02-06T08:56:37.026Z,29.30
2023-02-06T08:59:05.384Z,28.53
2023-02-06T09:01:35.509Z,29.60
2023-02-06T09:04:07.392Z,29.90
2023-02-06T09:06:44.153Z,27.83
2023-02-06T09:09:12.886Z,29.30
2023-02-06T09:11:40.397Z,27.77
2023-02-06T09:14:12.286Z,27.70
2023-02-06T09:16:39.335Z,27.23
2023-02-06T09:19:06.549Z,28.77
2023-02-06T09:21:35.691Z,28.43
2023-02-06T09:24:07.148Z,26.80
2023-02-06T09:26:57.111Z,27.97
2023-02-06T09:29:28.752Z,27.33
2023-02-06T09:31:57.548Z,26.30
2023-02-06T09:34:26.085Z,26.33
2023-02-06T09:36:56.986Z,27.43
2023-02-06T09:39:24.895Z,29.00
2023-02-06T09:42:08.012Z,27.67
2023-02-06T09:44:41.902Z,26.50
2023-02-06T09:47:34.054Z,26.63
2023-02-06T09:50:09.184Z,25.65
2023-02-06T09:53:16.718Z,28.45
2023-02-06T09:55:49.512Z,27.55
2023-02-06T09:58:35.142Z,26.35
2023-02-06T10:01:31.781Z,27.27
2023-02-06T10:04:28.981Z,26.90
2023-02-06T10:07:31.114Z,25.70
2023-02-06T10:10:27.319Z,27.13
2023-02-06T10:13:05.097Z,26.20
2023-02-06T10:15:49.313Z,25.20
2023-02-06T10:18:36.322Z,25.95
2023-02-06T10:21:29.334Z,24.83
2023-02-06T10:24:07.743Z,26.08
2023-02-06T10:26:39.723Z,24.40
2023-02-06T10:29:16.921Z,24.17
2023-02-06T10:32:15.598Z,23.73
2023-02-06T10:34:53.649Z,23.93
2023-02-06T10:37:26.477Z,23.40
2023-02-06T10:40:30.066Z,25.13
2023-02-06T10:43:24.197Z,24.10
2023-02-06T10:46:09.591Z,27.03
2023-02-06T10:49:23.703Z,26.87
2023-02-06T10:52:02.920Z,26.57
2023-02-06T10:54:38.781Z,29.20
2023-02-06T10:57:15.972Z,29.53
2023-02-06T10:59:53.539Z,33.33
2023-02-06T11:02:24.185Z,31.47
2023-02-06T11:05:00.275Z,31.27
2023-02-06T11:07:45.521Z,32.37
2023-02-06T11:10:17.479Z,33.33
2023-02-06T11:13:15.294Z,33.97
2023-02-06T11:16:06.326Z,32.77
2023-02-06T11:18:45.025Z,35.20
2023-02-06T11:21:15.317Z,35.83
2023-02-06T11:23:42.783Z,33.40
2023-02-06T11:26:22.665Z,34.37
2023-02-06T11:28:52.913Z,33.90
2023-02-06T11:31:38.439Z,35.53
2023-02-06T11:34:05.938Z,35.23
2023-02-06T11:36:37.571Z,34.20
2023-02-06T11:39:21.502Z,35.80
2023-02-06T11:42:02.834Z,34.93
2023-02-06T11:44:39.125Z,34.27
2023-02-06T11:47:38.097Z,37.50
2023-02-06T11:50:14.196Z,36.10
2023-02-06T11:52:47.041Z,34.33
2023-02-06T11:55:36.597Z,35.00
2023-02-06T11:58:11.743Z,36.60
2023-02-06T12:01:04.299Z,34.37
2023-02-06T12:03:38.643Z,35.63
2023-02-06T12:06:35.848Z,34.90
2023-02-06T12:09:11.651Z,34.73
2023-02-06T12:12:13.171Z,34.37
2023-02-06T12:15:04.887Z,34.40
2023-02-06T12:17:43.877Z,34.50
2023-02-06T12:20:26.454Z,31.07
2023-02-06T12:23:16.276Z,32.80
2023-02-06T12:25:49.938Z,29.93
2023-02-06T12:28:33.701Z,29.77
2023-02-06T12:31:24.332Z,29.07
2023-02-06T12:33:56.117Z,28.13
2023-02-06T12:36:30.750Z,28.47
2023-02-06T12:39:07.555Z,28.40
2023-02-06T12:42:05.733Z,28.07
2023-02-06T12:45:03.611Z,29.13
2023-02-06T12:48:18.085Z,25.40
2023-02-06T12:51:16.307Z,26.77
2023-02-06T12:53:51.421Z,25.97
2023-02-06T12:56:37.740Z,27.47
2023-02-06T12:59:07.646Z,25.67
2023-02-06T13:02:27.383Z,25.80
2023-02-06T13:04:55.577Z,27.37
2023-02-06T13:07:25.378Z,26.37
2023-02-06T13:10:02.969Z,27.13
2023-02-06T13:12:32.383Z,25.77
2023-02-06T13:15:05.192Z,26.67
2023-02-06T13:17:37.966Z,27.27
2023-02-06T13:20:16.492Z,28.30
2023-02-06T13:22:55.151Z,27.20
2023-02-06T13:25:31.152Z,26.77
2023-02-06T13:28:01.297Z,25.00
2023-02-06T13:30:31.509Z,26.23
2023-02-06T13:33:23.007Z,24.17
2023-02-06T13:36:04.009Z,25.53
2023-02-06T13:38:33.930Z,23.83
2023-02-06T13:41:15.825Z,22.97
2023-02-06T13:44:11.550Z,22.53
2023-02-06T13:47:08.386Z,32.83
2023-02-06T13:49:53.043Z,35.27
2023-02-06T13:53:12.788Z,37.67
2023-02-06T13:56:05.996Z,39.03
2023-02-06T13:58:51.746Z,41.83
2023-02-06T14:01:29.358Z,44.30
2023-02-06T14:03:58.185Z,48.73
2023-02-06T14:06:56.814Z,49.70
2023-02-06T14:10:16.706Z,47.27
2023-02-06T14:13:23.568Z,51.83
2023-02-06T14:15:58.875Z,49.87
2023-02-06T14:19:02.392Z,48.63
2023-02-06T14:21:46.818Z,54.50
2023-02-06T14:24:31.473Z,58.43
2023-02-06T14:27:32.241Z,60.07
2023-02-06T14:30:19.898Z,61.53
2023-02-06T14:33:07.286Z,64.23
2023-02-06T14:35:55.426Z,63.93
2023-02-06T14:38:58.914Z,64.03
2023-02-06T14:41:30.956Z,61.70
2023-02-06T14:43:59.532Z,62.90
2023-02-06T14:46:27.617Z,63.20
2023-02-06T14:48:58.698Z,62.10
2023-02-06T14:51:34.163Z,59.07
2023-02-06T14:54:26.522Z,60.97
2023-02-06T14:57:06.853Z,58.93
2023-02-06T14:59:33.969Z,59.80
2023-02-06T15:02:14.011Z,57.27
2023-02-06T15:04:47.758Z,57.13
2023-02-06T15:07:37.353Z,57.23
2023-02-06T15:10:06.802Z,53.40
2023-02-06T15:12:35.036Z,55.37
2023-02-06T15:15:27.505Z,53.80
2023-02-06T15:18:23.125Z,51.23
2023-02-06T15:21:07.253Z,53.87
2023-02-06T15:24:02.916Z,53.63
2023-02-06T15:27:16.536Z,51.50
2023-02-06T15:29:49.901Z,54.83
2023-02-06T15:32:39.471Z,52.90
2023-02-06T15:35:36.414Z,53.13
2023-02-06T15:38:16.001Z,53.17
2023-02-06T15:40:51.500Z,54.50
2023-02-06T15:43:27.424Z,56.13
2023-02-06T15:45:58.734Z,57.13
2023-02-06T15:48:38.822Z,57.33
2023-02-06T15:51:08.753Z,58.30
2023-02-06T15:53:41.096Z,58.53
2023-02-06T15:56:34.906Z,57.87
2023-02-06T15:59:06.384Z,58.50
2023-02-06T16:01:38.963Z,56.53
2023-02-06T16:04:32.222Z,58.93
2023-02-06T16:07:25.722Z,55.97
2023-02-06T16:10:18.760Z,54.13
2023-02-06T16:12:46.292Z,55.77
2023-02-06T16:15:31.896Z,57.33
2023-02-06T16:18:17.600Z,55.10
2023-02-06T16:20:46.502Z,57.23
2023-02-06T16:23:29.730Z,57.07
2023-02-06T16:26:07.487Z,54.80
2023-02-06T16:29:08.780Z,56.13
2023-02-06T16:31:41.425Z,53.27
2023-02-06T16:34:47.787Z,53.73
2023-02-06T16:37:24.996Z,51.70
2023-02-06T16:39:52.863Z,53.97
2023-02-06T16:42:36.737Z,55.50
2023-02-06T16:45:26.369Z,53.37
2023-02-06T16:47:54.918Z,52.30
2023-02-06T16:50:22.705Z,53.73
2023-02-06T16:52:53.653Z,50.00
2023-02-06T16:55:24.621Z,54.17
2023-02-06T16:57:56.458Z,53.27
2023-02-06T17:00:33.713Z,52.23
2023-02-06T17:03:00.849Z,51.13
2023-02-06T17:05:29.129Z,51.37
2023-02-06T17:07:56.502Z,52.17
2023-02-06T17:10:26.462Z,54.07
2023-02-06T17:12:54.290Z,53.50
2023-02-06T17:15:22.043Z,53.47
2023-02-06T17:17:49.161Z,54.13
2023-02-06T17:20:36.991Z,53.97
2023-02-06T17:23:05.355Z,53.83
2023-02-06T17:25:32.601Z,53.97
2023-02-06T17:28:00.309Z,53.57
2023-02-06T17:30:27.818Z,54.13
2023-02-06T17:32:55.495Z,56.70
2023-02-06T17:35:22.610Z,54.57
2023-02-06T17:37:51.426Z,53.60
2023-02-06T17:40:29.565Z,55.67
2023-02-06T17:42:58.207Z,53.57
2023-02-06T17:45:26.384Z,55.50
2023-02-06T17:47:53.759Z,55.47
2023-02-06T17:50:25.952Z,54.90
2023-02-06T17:52:55.663Z,54.80
2023-02-06T17:55:24.088Z,55.37
2023-02-06T17:57:51.457Z,55.37
2023-02-06T18:00:23.120Z,50.40
2023-02-06T18:02:52.489Z,53.63
2023-02-06T18:05:20.305Z,53.27
2023-02-06T18:07:49.597Z,53.87
2023-02-06T18:10:22.246Z,54.07
2023-02-06T18:12:49.717Z,54.47
2023-02-06T18:15:17.775Z,54.00
2023-02-06T18:17:44.812Z,54.67
2023-02-06T18:20:12.971Z,56.10
2023-02-06T18:22:42.939Z,54.50
2023-02-06T18:25:14.363Z,53.87
2023-02-06T18:27:45.202Z,51.93
2023-02-06T18:30:14.119Z,52.90
2023-02-06T18:32:41.576Z,51.40
2023-02-06T18:35:10.438Z,53.27
2023-02-06T18:37:37.688Z,49.93
2023-02-06T18:40:05.331Z,51.83
2023-02-06T18:42:50.912Z,54.27
2023-02-06T18:45:24.048Z,50.80
2023-02-06T18:47:51.791Z,51.77
2023-02-06T18:50:22.721Z,50.73
2023-02-06T18:52:50.211Z,51.23
2023-02-06T18:55:17.320Z,51.83
2023-02-06T18:57:44.448Z,50.50
2023-02-06T19:00:13.805Z,48.20
2023-02-06T19:02:41.719Z,47.10
2023-02-06T19:05:08.993Z,46.23
2023-02-06T19:07:36.062Z,44.93
2023-02-06T19:10:06.170Z,46.13
2023-02-06T19:12:33.321Z,42.83
2023-02-06T19:15:00.397Z,43.00
2023-02-06T19:17:28.393Z,43.40
2023-02-06T19:19:55.867Z,44.80
2023-02-06T19:22:23.470Z,40.40
2023-02-06T19:24:53.954Z,41.00
2023-02-06T19:27:21.990Z,41.07
2023-02-06T19:29:49.199Z,38.73
2023-02-06T19:32:16.349Z,38.50
2023-02-06T19:34:45.228Z,37.07
2023-02-06T19:37:13.458Z,36.37
2023-02-06T19:39:43.180Z,40.20
2023-02-06T19:42:11.174Z,40.63
2023-02-06T19:44:38.301Z,36.77
2023-02-06T19:47:05.413Z,35.20
2023-02-06T19:49:32.525Z,36.10
2023-02-06T19:51:59.804Z,36.23
2023-02-06T19:54:27.709Z,37.13
2023-02-06T19:56:55.156Z,37.17
2023-02-06T19:59:28.224Z,35.17
2023-02-06T20:02:01.740Z,36.50
2023-02-06T20:04:35.522Z,36.57
2023-02-06T20:07:03.190Z,36.27
2023-02-06T20:09:30.884Z,37.23
2023-02-06T20:11:58.472Z,36.73
2023-02-06T20:14:26.898Z,37.77
2023-02-06T20:16:54.300Z,36.83
2023-02-06T20:19:26.875Z,38.03
2023-02-06T20:21:58.991Z,40.27
2023-02-06T20:24:30.595Z,39.30
2023-02-06T20:27:01.629Z,39.00
2023-02-06T20:29:33.029Z,39.07
2023-02-06T20:32:00.868Z,43.30
2023-02-06T20:34:28.840Z,43.03
2023-02-06T20:36:56.484Z,41.43
2023-02-06T20:39:24.605Z,41.03
2023-02-06T20:41:52.075Z,42.47
2023-02-06T20:44:20.097Z,43.37
2023-02-06T20:46:47.796Z,43.87
2023-02-06T20:49:25.072Z,44.20
2023-02-06T20:51:53.309Z,43.83
2023-02-06T20:54:21.592Z,44.63
2023-02-06T20:56:49.771Z,44.97
2023-02-06T20:59:20.033Z,44.53
2023-02-06T21:01:47.373Z,46.63
2023-02-06T21:04:16.282Z,43.37
2023-02-06T21:06:44.550Z,41.20
2023-02-06T21:09:12.117Z,45.37
2023-02-06T21:11:46.456Z,43.10
2023-02-06T21:14:14.951Z,43.57
2023-02-06T21:16:43.799Z,44.33
2023-02-06T21:19:14.398Z,39.57
2023-02-06T21:21:41.609Z,40.37
2023-02-06T21:24:09.257Z,41.93
2023-02-06T21:26:37.316Z,39.67
2023-02-06T21:29:08.781Z,41.00
2023-02-06T21:31:38.572Z,40.33
2023-02-06T21:34:25.572Z,41.97
2023-02-06T21:36:54.621Z,40.97
2023-02-06T21:39:27.034Z,40.53
2023-02-06T21:41:54.792Z,39.90
2023-02-06T21:44:24.543Z,40.93
2023-02-06T21:46:52.885Z,41.83
2023-02-06T21:49:21.216Z,40.47
2023-02-06T21:51:48.271Z,40.73
2023-02-06T21:54:15.303Z,40.20
2023-02-06T21:56:42.952Z,41.53
2023-02-06T21:59:12.364Z,42.83
2023-02-06T22:01:41.183Z,39.73
2023-02-06T22:04:10.663Z,42.20
2023-02-06T22:06:39.311Z,40.43
2023-02-06T22:09:09.434Z,40.03
2023-02-06T22:11:39.281Z,39.63
2023-02-06T22:14:12.096Z,41.97
2023-02-06T22:16:40.126Z,38.53
2023-02-06T22:19:08.041Z,41.13
2023-02-06T22:21:35.962Z,39.50
2023-02-06T22:24:06.705Z,39.97
2023-02-06T22:26:36.940Z,39.93
2023-02-06T22:29:05.445Z,39.30
2023-02-06T22:31:35.238Z,39.20
2023-02-06T22:34:02.958Z,37.57
2023-02-06T22:36:32.851Z,38.20
2023-02-06T22:39:07.089Z,35.73
2023-02-06T22:41:35.772Z,37.43
2023-02-06T22:44:03.046Z,37.80
2023-02-06T22:46:36.276Z,37.13
2023-02-06T22:49:09.182Z,36.67
2023-02-06T22:51:38.569Z,37.10
2023-02-06T22:54:09.468Z,37.23
2023-02-06T22:56:38.822Z,37.67
2023-02-06T22:59:25.091Z,38.30
2023-02-06T23:01:55.882Z,39.27
2023-02-06T23:04:29.269Z,38.10
2023-02-06T23:06:57.063Z,39.23
2023-02-06T23:09:28.332Z,36.93
2023-02-06T23:11:59.810Z,38.13
2023-02-06T23:14:29.353Z,37.93
2023-02-06T23:16:57.015Z,39.67
2023-02-06T23:19:24.439Z,41.00
2023-02-06T23:21:52.153Z,39.57
2023-02-06T23:24:20.136Z,40.97
2023-02-06T23:26:50.371Z,43.87
2023-02-06T23:29:22.103Z,42.03
2023-02-06T23:31:50.154Z,45.10
2023-02-06T23:34:18.323Z,44.40
2023-02-06T23:36:46.332Z,45.30
2023-02-06T23:39:13.851Z,44.50
2023-02-06T23:41:41.251Z,46.53
2023-02-06T23:44:10.398Z,45.37
2023-02-06T23:46:39.166Z,47.43
2023-02-06T23:49:07.151Z,49.87
2023-02-06T23:51:35.918Z,46.47
2023-02-06T23:54:03.655Z,47.30
2023-02-06T23:56:32.275Z,46.23
2023-02-06T23:59:01.722Z,46.33
